Terminal Aerodrome Forecast
Issued by NWS

Current Version | Previous Version | Text Only | Print | Product List | Glossary Off
Versions: 1 2 3 4 5 6 7 8 9 10 11 12 13 14 15 16 17 18 19 20 21 22

629
FTUS41 KRLX 090557
TAFCKB
TAF
KCKB 090557Z 0906/1006 20004KT 1SM -SHSN OVC005
      TEMPO 0906/0910 3SM -SHSN OVC010
     FM091000 22007KT 1 1/2SM -SHSN OVC006
     FM091700 23010G17KT 1SM -SHSN SCT001 OVC008
     FM100000 26008KT 3/4SM -SHSN SCT001 OVC005
     FM100300 26009KT 3SM -SHSN OVC015
     FM100400 26009KT 4SM -SHSN OVC015=

USA.gov is the U.S. government's official web portal to all federal, state and local government web resources and services.